Time;durP1;ratioP1;P1;durP2;ratioP2;P2;SDS_P1;SDS_P2;PMS_P1;PMS_P2;Temp;Humidity;BMP_temperature;BMP_pressure;BME280_temperature;BME280_humidity;BME280_pressure;Samples;Min_cycle;Max_cycle;Signal;HPM_P1;HPM_P2
2022/11/26 00:01:41;;;;;;;1.33;1.23;;;3.40;99.90;;;;;;5057749;28;20071;-74
2022/11/26 00:04:07;;;;;;;0.40;0.40;;;3.40;99.90;;;;;;5074744;28;20053;-73
2022/11/26 00:06:39;;;;;;;0.20;0.20;;;3.40;99.90;;;;;;5077419;28;20557;-74
2022/11/26 00:09:10;;;;;;;0.03;0.03;;;3.50;99.90;;;;;;5077180;28;20044;-75
2022/11/26 00:11:36;;;;;;;0.10;0.10;;;3.50;99.90;;;;;;5060403;28;20139;-75
2022/11/26 00:14:01;;;;;;;0.00;0.00;;;3.50;99.90;;;;;;5072164;28;20053;-73
2022/11/26 00:16:29;;;;;;;1.30;1.20;;;3.40;99.90;;;;;;5077274;28;20109;-73
2022/11/26 00:18:54;;;;;;;0.43;0.43;;;3.40;99.90;;;;;;5075598;28;20056;-74
2022/11/26 00:21:25;;;;;;;0.10;0.10;;;3.40;99.90;;;;;;5074236;28;20558;-73
2022/11/26 00:23:52;;;;;;;0.00;0.00;;;3.40;99.90;;;;;;5059243;28;20161;-74
2022/11/26 00:26:23;;;;;;;11.18;0.52;;;3.40;99.90;;;;;;5077175;28;20503;-74
2022/11/26 00:29:01;;;;;;;0.17;0.17;;;3.30;99.90;;;;;;5077079;28;20052;-74
2022/11/26 00:31:27;;;;;;;0.10;0.10;;;3.40;99.90;;;;;;5058739;28;20422;-74
2022/11/26 00:33:53;;;;;;;0.17;0.17;;;3.30;99.90;;;;;;5056600;28;20040;-73
2022/11/26 00:36:25;;;;;;;0.10;0.10;;;3.40;99.90;;;;;;5056829;28;20049;-73
2022/11/26 00:38:57;;;;;;;0.08;0.08;;;3.40;99.90;;;;;;5056549;28;20056;-75
2022/11/26 00:41:25;;;;;;;0.30;0.30;;;3.40;99.90;;;;;;5074759;28;20044;-74
2022/11/26 00:43:51;;;;;;;0.10;0.10;;;3.40;99.90;;;;;;5076597;28;20048;-73
2022/11/26 00:46:19;;;;;;;2.05;1.40;;;3.40;99.90;;;;;;5076938;28;20100;-74
2022/11/26 00:48:45;;;;;;;1.55;1.25;;;3.40;99.90;;;;;;5076843;28;20042;-75
2022/11/26 00:51:23;;;;;;;0.03;0.03;;;3.30;99.90;;;;;;5076170;28;20049;-74
2022/11/26 00:53:52;;;;;;;1.40;0.70;;;3.30;99.90;;;;;;5076697;28;20057;-75
2022/11/26 00:56:20;;;;;;;0.55;0.08;;;3.40;99.90;;;;;;5076900;28;20410;-74
2022/11/26 00:58:48;;;;;;;1.15;1.10;;;3.30;99.90;;;;;;5074633;28;20047;-73
2022/11/26 01:01:18;;;;;;;1.33;1.23;;;3.30;99.90;;;;;;5074788;28;20139;-73
2022/11/26 01:03:44;;;;;;;0.80;0.20;;;3.40;99.90;;;;;;5075101;28;20056;-74
2022/11/26 01:06:35;;;;;;;0.30;0.30;;;3.40;99.90;;;;;;5074043;28;20091;-75
2022/11/26 01:09:03;;;;;;;0.03;0.03;;;3.40;99.90;;;;;;5073589;28;20052;-75
2022/11/26 01:11:28;;;;;;;0.00;0.00;;;3.30;99.90;;;;;;5073531;28;20051;-74
2022/11/26 01:13:54;;;;;;;0.32;0.28;;;3.30;99.90;;;;;;5074101;28;20682;-74
2022/11/26 01:16:30;;;;;;;0.05;0.05;;;3.20;99.90;;;;;;5073597;28;20064;-74
2022/11/26 01:18:57;;;;;;;0.63;0.63;;;3.20;99.90;;;;;;5075071;28;20059;-74
2022/11/26 01:21:25;;;;;;;0.22;0.22;;;3.20;99.90;;;;;;5073945;28;20044;-74
2022/11/26 01:23:51;;;;;;;0.80;0.80;;;3.10;99.90;;;;;;5073187;28;20043;-75
2022/11/26 01:26:31;;;;;;;3.35;2.30;;;3.10;99.90;;;;;;5073872;28;20036;-74
2022/11/26 01:28:57;;;;;;;0.10;0.10;;;3.10;99.90;;;;;;5073272;28;20091;-74
2022/11/26 01:31:25;;;;;;;0.00;0.00;;;3.00;99.90;;;;;;5072732;28;20501;-74
2022/11/26 01:33:51;;;;;;;0.25;0.25;;;3.10;99.90;;;;;;5071880;28;20053;-73
2022/11/26 01:36:29;;;;;;;1.15;0.95;;;3.00;99.90;;;;;;5053259;28;20090;-74
2022/11/26 01:38:58;;;;;;;0.30;0.30;;;3.00;99.90;;;;;;5072681;28;20446;-74
2022/11/26 01:42:00;;;;;;;0.57;0.50;;;3.00;99.90;;;;;;5054286;28;20072;-73
2022/11/26 01:44:29;;;;;;;0.73;0.63;;;3.00;99.90;;;;;;5051610;28;20048;-74
2022/11/26 01:46:55;;;;;;;1.10;1.00;;;2.90;99.90;;;;;;5051892;28;20122;-74
2022/11/26 01:49:33;;;;;;;0.40;0.40;;;2.90;99.90;;;;;;5053997;28;20056;-75
2022/11/26 01:52:23;;;;;;;0.17;0.17;;;2.90;99.90;;;;;;5072873;28;20051;-75
2022/11/26 01:54:51;;;;;;;0.08;0.08;;;2.90;99.90;;;;;;5073617;28;20044;-73
2022/11/26 01:57:25;;;;;;;0.25;0.25;;;2.90;99.90;;;;;;5071689;28;20510;-74
2022/11/26 01:59:54;;;;;;;0.00;0.00;;;2.90;99.90;;;;;;5070824;28;20044;-73
2022/11/26 02:02:23;;;;;;;0.80;0.70;;;2.90;99.90;;;;;;5071005;28;20049;-73
2022/11/26 02:05:07;;;;;;;0.10;0.10;;;2.90;99.90;;;;;;5071369;28;20418;-75
2022/11/26 02:07:34;;;;;;;0.00;0.00;;;2.90;99.90;;;;;;5071013;28;20136;-74
2022/11/26 02:10:00;;;;;;;0.00;0.00;;;2.80;99.90;;;;;;5070583;28;20037;-75
2022/11/26 02:12:27;;;;;;;0.22;0.22;;;2.80;99.90;;;;;;5072087;28;20071;-75
2022/11/26 02:14:53;;;;;;;0.10;0.10;;;2.80;99.90;;;;;;5072260;28;20840;-75
2022/11/26 02:17:45;;;;;;;0.08;0.08;;;2.80;99.90;;;;;;5074300;28;20044;-74
2022/11/26 02:20:30;;;;;;;0.10;0.10;;;2.70;99.90;;;;;;5071747;28;20080;-75
2022/11/26 02:23:14;;;;;;;0.20;0.20;;;2.80;99.90;;;;;;5072691;28;20044;-74
2022/11/26 02:26:01;;;;;;;0.08;0.08;;;2.90;99.90;;;;;;5071963;28;20138;-74
2022/11/26 02:28:56;;;;;;;1.48;1.30;;;2.80;99.90;;;;;;5071746;28;20555;-73
2022/11/26 02:31:37;;;;;;;0.00;0.00;;;2.70;99.90;;;;;;5070908;28;20064;-75
2022/11/26 02:34:51;;;;;;;0.10;0.10;;;2.70;99.90;;;;;;5071643;28;20064;-73
2022/11/26 02:37:32;;;;;;;0.00;0.00;;;2.70;99.90;;;;;;5054556;28;20056;-74
2022/11/26 02:39:58;;;;;;;0.00;0.00;;;2.70;99.90;;;;;;5072396;28;20040;-74
2022/11/26 02:42:30;;;;;;;0.30;0.30;;;2.60;99.90;;;;;;5072689;28;20090;-73
2022/11/26 02:45:01;;;;;;;0.25;0.25;;;2.60;99.90;;;;;;5072245;28;20044;-73
2022/11/26 02:47:28;;;;;;;0.32;0.32;;;2.60;99.90;;;;;;5070920;28;20421;-75
2022/11/26 02:49:56;;;;;;;0.25;0.25;;;2.60;99.90;;;;;;5070673;28;20064;-74
2022/11/26 02:52:23;;;;;;;0.47;0.30;;;2.60;99.90;;;;;;5071960;28;20044;-75
2022/11/26 02:54:51;;;;;;;0.00;0.00;;;2.60;99.90;;;;;;5074050;28;20044;-74
2022/11/26 02:57:20;;;;;;;0.68;0.68;;;2.60;99.90;;;;;;5077445;28;20056;-73
2022/11/26 02:59:46;;;;;;;0.28;0.28;;;2.60;99.90;;;;;;5076411;28;20624;-73
2022/11/26 03:02:23;;;;;;;0.57;0.15;;;2.60;99.90;;;;;;5075826;28;20060;-75
2022/11/26 03:04:53;;;;;;;0.40;0.40;;;2.70;99.90;;;;;;5075825;28;20056;-75
2022/11/26 03:07:19;;;;;;;0.32;0.32;;;2.70;99.90;;;;;;5075449;28;20052;-73
2022/11/26 03:09:57;;;;;;;0.03;0.03;;;2.70;99.90;;;;;;5074509;28;20086;-74
2022/11/26 03:12:23;;;;;;;0.00;0.00;;;2.70;99.90;;;;;;5074994;28;20052;-74
2022/11/26 03:14:50;;;;;;;0.30;0.30;;;2.70;99.90;;;;;;5073019;28;20051;-73
2022/11/26 03:17:16;;;;;;;1.88;1.13;;;2.70;99.90;;;;;;5072824;28;20490;-73
2022/11/26 03:19:42;;;;;;;0.20;0.20;;;2.70;99.90;;;;;;5072664;28;20395;-74
2022/11/26 03:22:08;;;;;;;0.40;0.40;;;2.70;99.90;;;;;;5073214;28;20046;-73
2022/11/26 03:24:34;;;;;;;0.08;0.08;;;2.70;99.90;;;;;;5072666;28;20068;-74
2022/11/26 03:26:59;;;;;;;0.47;0.47;;;2.70;99.90;;;;;;5073206;28;20052;-75
2022/11/26 03:29:25;;;;;;;0.45;0.35;;;2.70;99.90;;;;;;5073566;28;20044;-74
2022/11/26 03:31:50;;;;;;;0.55;0.55;;;2.70;99.90;;;;;;5075487;28;20148;-73
2022/11/26 03:34:16;;;;;;;0.88;0.85;;;2.70;99.90;;;;;;5073766;28;20051;-73
2022/11/26 03:36:42;;;;;;;1.13;0.80;;;2.80;99.90;;;;;;5074198;28;20048;-73
2022/11/26 03:39:08;;;;;;;1.35;1.25;;;2.90;99.90;;;;;;5073475;28;20098;-73
2022/11/26 03:41:33;;;;;;;0.10;0.10;;;2.90;99.90;;;;;;5072900;28;20048;-74
2022/11/26 03:43:59;;;;;;;0.10;0.10;;;3.00;99.90;;;;;;5072853;28;20082;-73
2022/11/26 03:46:25;;;;;;;0.30;0.30;;;3.00;99.90;;;;;;5073827;28;20059;-75
2022/11/26 03:48:50;;;;;;;0.65;0.63;;;3.00;99.90;;;;;;5073052;28;20048;-74
2022/11/26 03:51:16;;;;;;;0.38;0.38;;;3.00;99.90;;;;;;5072424;28;20040;-73
2022/11/26 03:53:41;;;;;;;0.30;0.30;;;3.00;99.90;;;;;;5072036;28;20066;-75
2022/11/26 03:56:07;;;;;;;0.22;0.22;;;3.00;99.90;;;;;;5071864;28;20056;-73
2022/11/26 03:58:34;;;;;;;1.35;0.85;;;3.00;99.90;;;;;;5071877;28;20048;-75
2022/11/26 04:00:59;;;;;;;1.23;1.13;;;3.00;99.90;;;;;;5071565;28;20446;-73
2022/11/26 04:03:25;;;;;;;0.08;0.08;;;3.00;99.90;;;;;;5072523;28;20040;-75
2022/11/26 04:05:51;;;;;;;2.08;1.30;;;3.10;99.90;;;;;;5071817;28;20048;-73
2022/11/26 04:08:17;;;;;;;0.30;0.30;;;3.00;99.90;;;;;;5071706;28;20076;-73
2022/11/26 04:10:42;;;;;;;0.88;0.88;;;3.00;99.90;;;;;;5072269;28;20037;-73
2022/11/26 04:13:08;;;;;;;0.63;0.55;;;3.00;99.90;;;;;;5071582;28;20053;-73
2022/11/26 04:15:33;;;;;;;0.95;0.95;;;3.00;99.90;;;;;;5072438;28;20083;-73
2022/11/26 04:17:59;;;;;;;5.47;2.35;;;3.00;99.90;;;;;;5071794;28;20123;-75
2022/11/26 04:20:25;;;;;;;0.10;0.10;;;2.90;99.90;;;;;;5071583;28;20139;-74
2022/11/26 04:22:50;;;;;;;0.57;0.57;;;2.90;99.90;;;;;;5054145;28;20673;-73
2022/11/26 04:25:16;;;;;;;1.75;1.65;;;2.90;99.90;;;;;;5071940;28;20059;-75
2022/11/26 04:27:42;;;;;;;0.10;0.08;;;2.90;99.90;;;;;;5072025;28;20791;-73
2022/11/26 04:30:08;;;;;;;0.43;0.32;;;2.90;99.90;;;;;;5071834;28;20052;-75
2022/11/26 04:32:34;;;;;;;0.20;0.20;;;2.80;99.90;;;;;;5072666;28;20047;-75
2022/11/26 04:34:59;;;;;;;7.72;0.77;;;2.80;99.90;;;;;;5071848;28;20076;-74
2022/11/26 04:37:25;;;;;;;1.75;1.65;;;2.80;99.90;;;;;;5072892;28;20127;-74
2022/11/26 04:39:51;;;;;;;0.95;0.80;;;2.70;99.90;;;;;;5072859;28;20109;-75
2022/11/26 04:42:16;;;;;;;0.98;0.90;;;2.80;99.90;;;;;;5072255;28;20049;-75
2022/11/26 04:44:42;;;;;;;0.25;0.25;;;2.80;99.90;;;;;;5072775;28;20061;-73
2022/11/26 04:47:07;;;;;;;0.40;0.40;;;2.80;99.90;;;;;;5072883;28;20079;-74
2022/11/26 04:49:33;;;;;;;1.48;1.35;;;2.80;99.90;;;;;;5073686;28;20076;-73
2022/11/26 04:51:59;;;;;;;0.20;0.20;;;2.90;99.90;;;;;;5073208;28;20054;-73
2022/11/26 04:54:24;;;;;;;0.55;0.55;;;3.00;99.90;;;;;;5073452;28;20048;-75
2022/11/26 04:56:50;;;;;;;0.30;0.30;;;3.00;99.90;;;;;;5072901;28;20052;-75
2022/11/26 04:59:15;;;;;;;1.17;1.10;;;3.00;99.90;;;;;;5073445;28;20098;-75
2022/11/26 05:01:41;;;;;;;1.00;0.90;;;2.90;99.90;;;;;;5073511;28;20048;-73
2022/11/26 05:04:07;;;;;;;0.40;0.40;;;2.90;99.90;;;;;;5072503;28;20044;-73
2022/11/26 05:06:33;;;;;;;0.10;0.10;;;2.90;99.90;;;;;;5071279;28;20053;-73
2022/11/26 05:08:58;;;;;;;0.20;0.20;;;3.00;99.90;;;;;;5071228;28;20048;-75
2022/11/26 05:11:24;;;;;;;0.00;0.00;;;3.00;99.90;;;;;;5071794;28;20079;-75
2022/11/26 05:13:50;;;;;;;0.63;0.63;;;3.00;99.90;;;;;;5071467;28;20052;-74
2022/11/26 05:16:15;;;;;;;0.77;0.77;;;3.10;99.90;;;;;;5071564;28;20125;-75
2022/11/26 05:18:41;;;;;;;0.20;0.20;;;3.10;99.90;;;;;;5070505;28;20086;-75
2022/11/26 05:21:06;;;;;;;0.55;0.55;;;3.10;99.90;;;;;;5071535;28;20051;-74
2022/11/26 05:23:32;;;;;;;0.10;0.10;;;3.10;99.90;;;;;;5071782;28;20421;-74
2022/11/26 05:25:58;;;;;;;0.30;0.30;;;3.20;99.90;;;;;;5072141;28;20052;-73
2022/11/26 05:28:23;;;;;;;0.00;0.00;;;3.10;99.90;;;;;;5072702;28;20056;-74
2022/11/26 05:30:49;;;;;;;0.28;0.28;;;3.10;99.90;;;;;;5072371;28;20063;-75
2022/11/26 05:33:15;;;;;;;1.95;1.55;;;3.10;99.90;;;;;;5070694;28;20048;-75
2022/11/26 05:35:40;;;;;;;1.60;1.23;;;3.10;99.90;;;;;;5072785;28;20071;-75
2022/11/26 05:38:06;;;;;;;1.55;1.45;;;3.10;99.90;;;;;;5070990;28;20076;-74
2022/11/26 05:40:32;;;;;;;1.83;0.85;;;3.10;99.90;;;;;;5070891;28;20044;-74
2022/11/26 05:42:57;;;;;;;0.55;0.55;;;3.20;99.90;;;;;;5072197;28;20049;-75
2022/11/26 05:45:23;;;;;;;0.98;0.63;;;3.10;99.90;;;;;;5071978;28;20464;-74
2022/11/26 05:47:49;;;;;;;0.20;0.20;;;3.00;99.90;;;;;;5071395;28;20495;-75
2022/11/26 05:50:14;;;;;;;0.32;0.32;;;3.10;99.90;;;;;;5070975;28;20066;-75
2022/11/26 05:52:40;;;;;;;0.47;0.47;;;3.10;99.90;;;;;;5070660;28;20501;-73
2022/11/26 05:55:07;;;;;;;0.30;0.30;;;3.00;99.90;;;;;;5071343;28;20097;-75
2022/11/26 05:57:32;;;;;;;0.63;0.63;;;3.00;99.90;;;;;;5070382;28;20056;-74
2022/11/26 05:59:58;;;;;;;0.20;0.20;;;2.90;99.90;;;;;;5070346;28;20052;-73
2022/11/26 06:02:23;;;;;;;1.13;1.05;;;2.90;99.90;;;;;;5071141;28;20056;-74
2022/11/26 06:04:49;;;;;;;0.30;0.30;;;2.90;99.90;;;;;;5071127;28;20052;-74
2022/11/26 06:07:14;;;;;;;1.27;0.93;;;3.00;99.90;;;;;;5069774;28;20068;-74
2022/11/26 06:09:40;;;;;;;0.22;0.22;;;3.00;99.90;;;;;;5069708;28;20049;-75
2022/11/26 06:12:06;;;;;;;1.02;0.93;;;3.00;99.90;;;;;;5070749;28;20044;-73
2022/11/26 06:14:32;;;;;;;0.68;0.55;;;3.00;99.90;;;;;;5069810;28;20040;-74
2022/11/26 06:16:57;;;;;;;0.63;0.50;;;3.00;99.90;;;;;;5070115;28;20128;-75
2022/11/26 06:19:23;;;;;;;0.20;0.20;;;3.00;99.90;;;;;;5070315;28;20044;-74
2022/11/26 06:21:49;;;;;;;1.73;1.35;;;3.00;99.90;;;;;;5071674;28;20490;-73
2022/11/26 06:24:14;;;;;;;0.32;0.32;;;3.00;99.90;;;;;;5070271;28;20053;-74
2022/11/26 06:26:40;;;;;;;0.88;0.88;;;3.00;99.90;;;;;;5070742;28;20048;-74
2022/11/26 06:29:06;;;;;;;1.58;1.48;;;3.00;99.90;;;;;;5070916;28;20135;-74
2022/11/26 06:31:32;;;;;;;1.35;0.35;;;3.00;99.90;;;;;;5074180;28;20059;-74
2022/11/26 06:33:58;;;;;;;0.32;0.32;;;3.00;99.90;;;;;;5074713;28;20060;-74
2022/11/26 06:36:24;;;;;;;0.32;0.32;;;3.00;99.90;;;;;;5073771;28;20072;-73
2022/11/26 06:38:50;;;;;;;0.35;0.35;;;3.00;99.90;;;;;;5074196;28;20048;-74
2022/11/26 06:41:15;;;;;;;0.88;0.88;;;3.10;99.90;;;;;;5074288;28;20055;-74
2022/11/26 06:43:41;;;;;;;3.70;0.65;;;3.10;99.90;;;;;;5074825;28;20040;-74
2022/11/26 06:46:10;;;;;;;4.25;1.63;;;3.10;99.90;;;;;;5060663;28;20745;-74
2022/11/26 06:48:37;;;;;;;0.68;0.68;;;3.10;99.90;;;;;;5039284;28;20494;-74
2022/11/26 06:51:06;;;;;;;0.45;0.45;;;3.10;99.90;;;;;;5072208;28;20071;-74
2022/11/26 06:53:32;;;;;;;1.92;0.63;;;3.20;99.90;;;;;;5072410;28;20053;-74
2022/11/26 06:56:00;;;;;;;0.52;0.52;;;3.10;99.90;;;;;;5073019;28;20044;-74
2022/11/26 06:58:26;;;;;;;0.20;0.20;;;3.10;99.90;;;;;;5074091;28;20052;-74
2022/11/26 07:00:51;;;;;;;1.55;1.33;;;3.20;99.90;;;;;;5074758;28;20100;-73
2022/11/26 07:03:17;;;;;;;1.15;0.77;;;3.20;99.90;;;;;;5073583;28;20486;-74
2022/11/26 07:05:42;;;;;;;0.50;0.43;;;3.20;99.90;;;;;;5075299;28;20104;-75
2022/11/26 07:08:11;;;;;;;1.33;0.80;;;3.20;99.90;;;;;;5074317;28;20359;-75
2022/11/26 07:10:37;;;;;;;1.27;1.17;;;3.30;99.90;;;;;;5074450;28;20044;-74
2022/11/26 07:13:03;;;;;;;0.75;0.73;;;3.30;99.90;;;;;;5073710;28;20064;-73
2022/11/26 07:15:28;;;;;;;0.22;0.22;;;3.30;99.90;;;;;;5074556;28;20049;-74
2022/11/26 07:17:54;;;;;;;0.32;0.32;;;3.30;99.90;;;;;;5074697;28;20103;-74
2022/11/26 07:20:20;;;;;;;0.68;0.68;;;3.40;99.90;;;;;;5076141;28;20047;-75
2022/11/26 07:22:46;;;;;;;0.75;0.60;;;3.50;99.90;;;;;;5056139;28;20052;-75
2022/11/26 07:25:11;;;;;;;0.95;0.55;;;3.50;99.90;;;;;;5074046;28;20091;-74
2022/11/26 07:27:37;;;;;;;0.55;0.47;;;3.50;99.90;;;;;;5073444;28;20131;-75
2022/11/26 07:30:04;;;;;;;3.25;1.60;;;3.50;99.90;;;;;;5072027;28;20044;-74
2022/11/26 07:32:33;;;;;;;3.72;0.85;;;3.50;99.90;;;;;;5072619;28;20036;-76
2022/11/26 07:35:01;;;;;;;1.52;0.60;;;3.50;99.90;;;;;;5073602;28;20497;-74
2022/11/26 07:37:27;;;;;;;1.30;1.20;;;3.50;99.90;;;;;;5072413;28;20044;-75
2022/11/26 07:39:53;;;;;;;0.40;0.40;;;3.50;99.90;;;;;;5074268;28;20045;-74
2022/11/26 07:42:18;;;;;;;1.23;1.13;;;3.50;99.90;;;;;;5072625;28;20056;-75
2022/11/26 07:44:44;;;;;;;0.65;0.65;;;3.60;99.90;;;;;;5073208;28;20044;-75
2022/11/26 07:47:09;;;;;;;0.50;0.50;;;3.60;99.90;;;;;;5074344;28;20037;-75
2022/11/26 07:49:36;;;;;;;0.20;0.20;;;3.70;99.90;;;;;;5073994;28;20198;-74
2022/11/26 07:52:02;;;;;;;1.15;0.80;;;3.70;99.90;;;;;;5072662;28;20044;-75
2022/11/26 07:54:28;;;;;;;0.22;0.22;;;3.80;99.90;;;;;;5070481;28;20076;-76
2022/11/26 07:56:53;;;;;;;1.20;1.10;;;3.90;99.90;;;;;;5071315;28;20048;-76
2022/11/26 07:59:22;;;;;;;1.85;1.25;;;4.10;99.90;;;;;;5070409;28;20044;-75
2022/11/26 08:01:49;;;;;;;0.93;0.90;;;4.10;99.90;;;;;;5070713;28;20473;-74
2022/11/26 08:04:14;;;;;;;0.47;0.47;;;4.10;99.90;;;;;;5070389;28;20044;-76
2022/11/26 08:06:40;;;;;;;0.65;0.65;;;4.30;99.90;;;;;;5070344;28;20048;-76
2022/11/26 08:09:06;;;;;;;0.47;0.47;;;4.40;99.90;;;;;;5070194;28;20044;-75
2022/11/26 08:11:37;;;;;;;0.95;0.95;;;4.50;99.90;;;;;;5070396;28;20061;-74
2022/11/26 08:14:09;;;;;;;1.95;1.77;;;4.60;99.90;;;;;;5071646;28;20067;-75
2022/11/26 08:16:36;;;;;;;0.20;0.20;;;4.60;99.90;;;;;;5072500;28;20153;-76
2022/11/26 08:19:11;;;;;;;0.32;0.32;;;4.60;99.90;;;;;;5068999;28;21221;-74
2022/11/26 08:21:38;;;;;;;0.55;0.55;;;4.60;99.90;;;;;;5050775;28;20066;-75
2022/11/26 08:24:04;;;;;;;0.47;0.40;;;4.60;99.90;;;;;;5037497;28;20060;-74
2022/11/26 08:26:30;;;;;;;0.32;0.32;;;4.60;99.90;;;;;;5071259;28;20138;-76
2022/11/26 08:28:57;;;;;;;0.50;0.50;;;4.60;99.90;;;;;;5071654;28;20083;-73
2022/11/26 08:31:26;;;;;;;0.10;0.10;;;4.60;99.90;;;;;;5070011;28;20056;-75
2022/11/26 08:33:54;;;;;;;0.77;0.55;;;4.60;99.90;;;;;;5070363;28;20049;-74
2022/11/26 08:36:20;;;;;;;2.90;1.88;;;4.60;99.90;;;;;;5061328;28;20478;-76
2022/11/26 08:38:45;;;;;;;0.10;0.10;;;4.60;99.90;;;;;;5059108;28;20047;-74
2022/11/26 08:41:12;;;;;;;3.63;0.73;;;4.60;99.90;;;;;;5059207;28;20713;-74
2022/11/26 08:43:39;;;;;;;7.22;2.15;;;4.60;99.90;;;;;;5063819;28;20418;-74
2022/11/26 08:46:05;;;;;;;0.70;0.70;;;4.70;99.90;;;;;;5052428;28;20114;-74
2022/11/26 08:48:31;;;;;;;1.23;1.13;;;4.80;99.90;;;;;;5049846;28;20059;-73
2022/11/26 08:50:59;;;;;;;0.40;0.40;;;4.90;99.90;;;;;;5051743;28;20538;-76
2022/11/26 08:53:25;;;;;;;0.20;0.20;;;4.90;99.90;;;;;;5032057;28;20092;-74
2022/11/26 08:55:51;;;;;;;0.00;0.00;;;5.00;99.90;;;;;;5068383;28;20032;-74
2022/11/26 08:58:17;;;;;;;5.47;1.75;;;5.10;99.90;;;;;;5069419;28;20421;-75
2022/11/26 09:00:43;;;;;;;0.70;0.70;;;5.10;99.90;;;;;;5052267;28;20044;-75
2022/11/26 09:03:09;;;;;;;0.30;0.22;;;5.20;99.90;;;;;;5071733;28;20102;-74
2022/11/26 09:05:35;;;;;;;1.70;0.75;;;5.30;99.90;;;;;;5055971;28;20053;-74
2022/11/26 09:08:00;;;;;;;0.40;0.40;;;5.40;99.90;;;;;;5049239;28;20056;-75
2022/11/26 09:10:26;;;;;;;0.98;0.90;;;5.40;99.90;;;;;;5062983;28;20051;-76
2022/11/26 09:12:52;;;;;;;1.38;1.13;;;5.40;99.90;;;;;;5071449;28;20052;-76
2022/11/26 09:15:17;;;;;;;1.25;1.15;;;5.50;99.90;;;;;;5070499;28;20060;-75
2022/11/26 09:17:43;;;;;;;0.20;0.20;;;5.50;99.90;;;;;;5069390;28;20048;-74
2022/11/26 09:20:18;;;;;;;1.00;0.90;;;5.60;99.90;;;;;;5053792;28;20048;-74
2022/11/26 09:22:43;;;;;;;0.10;0.10;;;5.70;99.90;;;;;;5038153;28;20084;-75
2022/11/26 09:25:09;;;;;;;0.35;0.35;;;5.70;99.90;;;;;;5061548;28;20040;-76
2022/11/26 09:27:35;;;;;;;0.85;0.85;;;5.80;99.90;;;;;;5055692;28;20048;-75
2022/11/26 09:30:01;;;;;;;5.13;1.98;;;5.90;99.90;;;;;;5055755;28;20402;-75
2022/11/26 09:32:27;;;;;;;5.28;2.00;;;5.90;99.90;;;;;;5072961;28;20609;-76
2022/11/26 09:34:52;;;;;;;2.55;2.08;;;5.90;99.90;;;;;;5055672;28;20029;-75
2022/11/26 09:37:18;;;;;;;0.00;0.00;;;6.00;99.90;;;;;;5071029;28;20067;-76
2022/11/26 09:39:44;;;;;;;0.93;0.90;;;6.10;99.90;;;;;;5057990;28;20052;-76
2022/11/26 09:42:30;;;;;;;0.13;0.13;;;6.10;99.90;;;;;;5072237;28;20044;-75
2022/11/26 09:44:59;;;;;;;;;;;6.10;99.90;;;;;;5074350;28;20048;-74
2022/11/26 09:47:52;;;;;;;1.48;1.38;;;6.20;99.90;;;;;;5072631;28;20385;-74
2022/11/26 09:50:30;;;;;;;0.55;0.55;;;6.20;99.90;;;;;;5070347;28;20052;-76
2022/11/26 09:53:13;;;;;;;1.45;1.35;;;6.30;99.90;;;;;;5073063;28;20040;-74
2022/11/26 09:55:45;;;;;;;1.15;0.88;;;6.30;99.90;;;;;;5073873;28;20052;-75
2022/11/26 09:58:16;;;;;;;1.23;1.13;;;6.40;99.90;;;;;;5073091;28;20040;-76
2022/11/26 10:00:45;;;;;;;0.75;0.75;;;6.40;99.90;;;;;;5072586;28;20048;-76
2022/11/26 10:03:14;;;;;;;1.55;1.05;;;6.50;99.90;;;;;;5072339;28;20041;-75
2022/11/26 10:06:00;;;;;;;3.25;2.95;;;6.50;99.90;;;;;;5072377;28;20108;-75
2022/11/26 10:08:48;;;;;;;0.00;0.00;;;6.50;99.90;;;;;;5072591;28;20044;-76
2022/11/26 10:11:28;;;;;;;2.40;1.30;;;6.60;99.90;;;;;;5071312;28;20068;-76
2022/11/26 10:14:12;;;;;;;1.00;0.90;;;6.70;99.90;;;;;;5072739;28;20063;-75
2022/11/26 10:17:05;;;;;;;1.27;0.90;;;6.70;99.90;;;;;;5073697;28;20078;-75
2022/11/26 10:19:52;;;;;;;1.00;0.90;;;6.80;99.90;;;;;;5074269;28;20056;-75
2022/11/26 10:22:27;;;;;;;1.30;1.20;;;6.90;99.90;;;;;;5072446;28;20037;-74
2022/11/26 10:24:56;;;;;;;3.72;2.08;;;6.90;99.90;;;;;;5074482;28;20052;-76
2022/11/26 10:27:26;;;;;;;6.97;5.07;;;7.00;99.90;;;;;;5075403;28;20044;-76
2022/11/26 10:30:00;;;;;;;3.08;2.80;;;7.10;99.90;;;;;;5074835;28;20041;-75
2022/11/26 10:32:33;;;;;;;0.35;0.32;;;7.20;99.90;;;;;;5071279;28;20436;-74
2022/11/26 10:34:59;;;;;;;0.08;0.08;;;7.20;99.90;;;;;;5071887;28;20102;-76
2022/11/26 10:37:26;;;;;;;1.25;0.47;;;7.30;99.90;;;;;;5073610;28;20036;-74
2022/11/26 10:40:05;;;;;;;1.10;0.55;;;7.40;99.90;;;;;;5073872;28;20040;-73
2022/11/26 10:42:41;;;;;;;3.72;1.80;;;7.50;99.90;;;;;;5073894;28;20056;-74
2022/11/26 10:45:35;;;;;;;0.88;0.80;;;7.50;99.90;;;;;;5072770;28;20052;-75
2022/11/26 10:48:33;;;;;;;0.57;0.57;;;7.60;99.90;;;;;;5074508;28;20137;-74
2022/11/26 10:51:28;;;;;;;0.68;0.68;;;7.60;99.90;;;;;;5072509;28;20040;-74
2022/11/26 10:54:00;;;;;;;4.70;1.02;;;7.60;99.90;;;;;;5055869;28;20493;-74
2022/11/26 10:56:35;;;;;;;4.43;1.65;;;7.60;99.90;;;;;;5074506;28;20036;-76
2022/11/26 10:59:04;;;;;;;0.73;0.73;;;7.70;99.90;;;;;;5073566;28;20119;-75
2022/11/26 11:01:36;;;;;;;2.25;1.63;;;7.70;99.90;;;;;;5072547;28;20383;-75
2022/11/26 11:04:08;;;;;;;0.45;0.40;;;7.70;99.90;;;;;;5072383;28;20048;-75
2022/11/26 11:06:41;;;;;;;0.57;0.57;;;7.80;99.90;;;;;;5073682;28;20500;-76
2022/11/26 11:09:36;;;;;;;3.70;1.42;;;7.80;99.90;;;;;;5072792;28;20115;-74
2022/11/26 11:12:21;;;;;;;0.50;0.50;;;7.80;99.90;;;;;;5042258;28;20067;-74
2022/11/26 11:14:49;;;;;;;10.38;1.80;;;7.90;99.90;;;;;;5053049;28;20052;-73
2022/11/26 11:17:30;;;;;;;1.42;1.33;;;7.90;99.90;;;;;;5056338;28;20051;-76
2022/11/26 11:19:58;;;;;;;2.38;1.35;;;7.90;99.90;;;;;;5056774;28;20047;-74
2022/11/26 11:22:25;;;;;;;3.13;1.95;;;7.90;99.90;;;;;;5076369;28;20048;-74
2022/11/26 11:24:50;;;;;;;1.58;1.02;;;8.00;99.90;;;;;;5076033;28;20044;-75
2022/11/26 11:27:36;;;;;;;4.93;2.40;;;8.00;99.90;;;;;;5077398;28;20111;-74
2022/11/26 11:30:02;;;;;;;2.55;2.20;;;8.00;99.90;;;;;;5077419;28;20044;-76
2022/11/26 11:32:37;;;;;;;2.10;1.60;;;7.90;99.90;;;;;;5075797;28;20036;-75
2022/11/26 11:35:18;;;;;;;1.92;1.50;;;8.00;99.90;;;;;;5076521;28;20066;-74
2022/11/26 11:37:50;;;;;;;1.17;1.02;;;8.00;99.90;;;;;;5076318;28;20063;-76
2022/11/26 11:40:19;;;;;;;1.63;1.20;;;8.00;99.90;;;;;;5075999;28;20104;-76
2022/11/26 11:43:06;;;;;;;1.27;1.20;;;8.00;99.90;;;;;;5076972;28;20056;-75
2022/11/26 11:45:44;;;;;;;0.85;0.65;;;8.10;99.90;;;;;;5076352;28;20045;-74
2022/11/26 11:48:30;;;;;;;5.32;1.73;;;8.10;99.90;;;;;;5076113;28;20070;-74
2022/11/26 11:51:04;;;;;;;2.00;1.85;;;8.10;99.90;;;;;;5076970;28;20136;-76
2022/11/26 11:53:37;;;;;;;1.95;1.75;;;8.10;99.90;;;;;;5056987;28;20052;-76
2022/11/26 11:56:23;;;;;;;3.92;2.97;;;8.10;99.90;;;;;;5057141;28;20067;-76
2022/11/26 11:59:14;;;;;;;4.60;2.20;;;8.10;99.90;;;;;;5057374;28;20052;-75
2022/11/26 12:01:59;;;;;;;0.95;0.70;;;8.10;99.90;;;;;;5074959;28;20047;-75
2022/11/26 12:04:42;;;;;;;1.85;1.52;;;8.10;99.90;;;;;;5077755;28;20173;-75
2022/11/26 12:07:23;;;;;;;1.55;1.45;;;8.10;99.90;;;;;;5076458;28;20430;-74
2022/11/26 12:10:07;;;;;;;0.80;0.75;;;8.10;99.90;;;;;;5077181;28;20048;-74
2022/11/26 12:12:51;;;;;;;1.55;0.90;;;8.00;99.90;;;;;;5077554;28;20417;-76
2022/11/26 12:15:27;;;;;;;2.38;1.85;;;8.10;99.90;;;;;;5076735;28;20100;-74
2022/11/26 12:17:59;;;;;;;3.72;2.13;;;8.10;99.90;;;;;;5077370;28;20072;-73
2022/11/26 12:20:33;;;;;;;5.00;2.88;;;8.10;99.90;;;;;;5075802;28;20486;-75
2022/11/26 12:23:13;;;;;;;18.40;2.58;;;8.00;99.90;;;;;;5078684;28;20048;-74
2022/11/26 12:25:39;;;;;;;5.88;2.30;;;8.00;99.90;;;;;;5075730;28;20273;-75
2022/11/26 12:28:30;;;;;;;7.10;5.45;;;8.00;99.90;;;;;;5075617;28;20055;-74
2022/11/26 12:31:22;;;;;;;2.25;2.00;;;8.00;99.90;;;;;;5076790;28;20043;-75
2022/11/26 12:34:02;;;;;;;3.60;2.92;;;8.10;99.90;;;;;;5076837;28;20051;-75
2022/11/26 12:36:38;;;;;;;1.10;1.05;;;8.10;99.90;;;;;;5075697;28;20048;-76
2022/11/26 12:39:17;;;;;;;;;;;8.10;99.90;;;;;;5077345;28;20048;-74
2022/11/26 12:42:03;;;;;;;1.98;1.55;;;8.20;99.90;;;;;;5076240;28;19925;-75
2022/11/26 12:44:34;;;;;;;1.42;1.23;;;8.20;99.90;;;;;;5054965;28;20102;-76
2022/11/26 12:47:29;;;;;;;2.45;2.17;;;8.20;99.90;;;;;;5055850;28;20060;-75
2022/11/26 12:50:01;;;;;;;2.45;1.90;;;8.20;99.90;;;;;;5076038;28;20118;-74
2022/11/26 12:53:05;;;;;;;0.73;0.68;;;8.20;99.90;;;;;;5077050;28;20509;-75
2022/11/26 12:55:39;;;;;;;3.55;2.28;;;8.20;99.90;;;;;;5071523;28;20048;-74
2022/11/26 12:58:42;;;;;;;4.03;2.08;;;8.20;99.90;;;;;;5075377;28;20052;-75
2022/11/26 13:01:09;;;;;;;1.80;1.55;;;8.20;99.90;;;;;;5024391;28;20123;-75
2022/11/26 13:03:35;;;;;;;1.65;1.55;;;8.20;99.90;;;;;;5073926;28;20041;-75
2022/11/26 13:06:09;;;;;;;2.67;1.90;;;8.20;99.90;;;;;;5075407;28;20129;-75
2022/11/26 13:09:06;;;;;;;1.42;1.33;;;8.20;99.90;;;;;;5074560;28;20080;-74
2022/11/26 13:11:44;;;;;;;;;;;8.20;99.90;;;;;;5074953;28;20048;-74
2022/11/26 13:14:26;;;;;;;2.13;1.90;;;8.20;99.90;;;;;;5074922;28;19950;-76
2022/11/26 13:17:14;;;;;;;6.70;1.77;;;8.20;99.90;;;;;;5074642;28;20028;-75